Time;durP1;ratioP1;P1;durP2;ratioP2;P2;SDS_P1;SDS_P2;PMS_P1;PMS_P2;Temp;Humidity;BMP_temperature;BMP_pressure;BME280_temperature;BME280_humidity;BME280_pressure;Samples;Min_cycle;Max_cycle;Signal;HPM_P1;HPM_P2
2023/12/12 00:00:52;;;;;;;3.33;3.03;;;6.70;99.90;;;;;;5208852;28;20437;-50
2023/12/12 00:03:23;;;;;;;5.73;5.07;;;6.70;99.90;;;;;;5206333;28;20658;-52
2023/12/12 00:05:57;;;;;;;4.03;3.73;;;6.80;99.90;;;;;;5213172;28;20210;-50
2023/12/12 00:08:28;;;;;;;4.37;4.00;;;6.80;99.90;;;;;;5207182;28;20942;-51
2023/12/12 00:10:59;;;;;;;4.00;3.70;;;6.80;99.90;;;;;;5207131;28;20521;-51
2023/12/12 00:13:29;;;;;;;3.63;3.43;;;6.70;99.90;;;;;;5208172;28;20577;-51
2023/12/12 00:16:00;;;;;;;9.37;3.83;;;6.80;99.90;;;;;;5207174;28;20659;-51
2023/12/12 00:18:36;;;;;;;4.23;3.30;;;6.70;99.90;;;;;;5203613;28;20190;-50
2023/12/12 00:21:06;;;;;;;4.97;4.47;;;6.70;99.90;;;;;;5207321;28;20190;-50
2023/12/12 00:23:37;;;;;;;5.53;4.57;;;6.70;99.90;;;;;;5206098;28;20434;-50
2023/12/12 00:26:09;;;;;;;4.43;3.23;;;6.70;99.90;;;;;;5207329;28;20242;-51
2023/12/12 00:28:40;;;;;;;3.33;3.23;;;6.70;99.90;;;;;;5206676;28;20664;-52
2023/12/12 00:31:11;;;;;;;3.17;3.07;;;6.70;99.90;;;;;;5206989;28;20763;-52
2023/12/12 00:33:41;;;;;;;3.43;2.93;;;6.70;99.90;;;;;;5200719;28;20453;-51
2023/12/12 00:36:12;;;;;;;4.10;3.80;;;6.60;99.90;;;;;;5205348;28;20721;-50
2023/12/12 00:38:43;;;;;;;3.70;3.47;;;6.70;99.90;;;;;;5208067;28;20207;-50
2023/12/12 00:41:14;;;;;;;5.67;4.50;;;6.60;99.90;;;;;;5206974;28;20571;-51
2023/12/12 00:43:44;;;;;;;5.70;4.03;;;6.60;99.90;;;;;;5216685;28;20511;-49
2023/12/12 00:46:15;;;;;;;5.03;4.43;;;6.60;99.90;;;;;;5204371;28;20211;-51
2023/12/12 00:48:46;;;;;;;4.67;4.27;;;6.60;99.90;;;;;;5212948;28;20175;-50
2023/12/12 00:51:17;;;;;;;4.40;4.10;;;6.50;99.90;;;;;;5208778;28;20749;-50
2023/12/12 00:53:49;;;;;;;7.17;4.67;;;6.50;99.90;;;;;;5205167;28;20427;-51
2023/12/12 00:56:20;;;;;;;12.93;3.70;;;6.50;99.90;;;;;;5212182;28;20199;-50
2023/12/12 00:58:51;;;;;;;7.33;4.23;;;6.50;99.90;;;;;;5208689;28;20803;-50
2023/12/12 01:01:22;;;;;;;3.93;3.63;;;6.40;99.90;;;;;;5207642;28;20184;-49
2023/12/12 01:03:58;;;;;;;4.63;4.30;;;6.40;99.90;;;;;;5202493;28;20437;-49
2023/12/12 01:06:29;;;;;;;4.23;3.70;;;6.40;99.90;;;;;;5206242;28;20253;-51
2023/12/12 01:09:00;;;;;;;4.63;4.00;;;6.40;99.90;;;;;;5204053;28;20453;-51
2023/12/12 01:11:31;;;;;;;3.80;3.60;;;6.30;99.90;;;;;;5205934;28;20438;-52
2023/12/12 01:14:02;;;;;;;4.50;3.90;;;6.30;99.90;;;;;;5208957;28;21001;-51
2023/12/12 01:16:36;;;;;;;3.40;3.23;;;6.40;99.90;;;;;;5204993;28;20445;-50
2023/12/12 01:19:07;;;;;;;8.23;5.10;;;6.40;99.90;;;;;;5206492;28;21009;-50
2023/12/12 01:21:38;;;;;;;4.50;4.10;;;6.40;99.90;;;;;;5206482;28;20530;-50
2023/12/12 01:24:11;;;;;;;4.17;3.77;;;6.30;99.90;;;;;;5202559;28;20184;-51
2023/12/12 01:26:48;;;;;;;3.93;3.67;;;6.30;99.90;;;;;;5204986;28;20462;-51
2023/12/12 01:29:19;;;;;;;4.07;3.87;;;6.30;99.90;;;;;;5206631;28;20434;-52
2023/12/12 01:31:50;;;;;;;6.57;3.80;;;6.30;99.90;;;;;;5209638;28;20461;-51
2023/12/12 01:34:23;;;;;;;4.17;3.87;;;6.40;99.90;;;;;;5204251;28;20218;-51
2023/12/12 01:36:55;;;;;;;5.40;4.33;;;6.30;99.90;;;;;;5207722;28;20195;-50
2023/12/12 01:39:30;;;;;;;7.50;5.20;;;6.40;99.90;;;;;;5204057;28;20438;-50
2023/12/12 01:42:03;;;;;;;4.37;3.83;;;6.40;99.90;;;;;;5204602;28;20530;-51
2023/12/12 01:44:34;;;;;;;4.50;4.07;;;6.40;99.90;;;;;;5206488;28;20434;-49
2023/12/12 01:47:06;;;;;;;5.37;4.93;;;6.40;99.90;;;;;;5207605;28;20978;-51
2023/12/12 01:49:37;;;;;;;4.63;4.30;;;6.40;99.90;;;;;;5204249;28;20184;-51
2023/12/12 01:52:09;;;;;;;5.67;4.90;;;6.40;99.90;;;;;;5207081;28;20427;-49
2023/12/12 01:54:44;;;;;;;8.97;5.80;;;6.40;99.90;;;;;;5205489;28;20505;-51
2023/12/12 01:57:21;;;;;;;6.33;4.30;;;6.40;99.90;;;;;;5205645;28;20454;-51
2023/12/12 01:59:55;;;;;;;5.77;5.23;;;6.40;99.90;;;;;;5203284;28;20438;-51
2023/12/12 02:02:32;;;;;;;4.47;4.17;;;6.40;99.90;;;;;;5224386;28;20444;-51
2023/12/12 02:05:03;;;;;;;6.70;5.07;;;6.40;99.90;;;;;;5204868;28;20437;-49
2023/12/12 02:07:35;;;;;;;5.63;5.13;;;6.40;99.90;;;;;;5204390;28;20437;-49
2023/12/12 02:10:07;;;;;;;9.73;6.90;;;6.40;99.90;;;;;;5207662;28;20441;-50
2023/12/12 02:12:38;;;;;;;7.73;5.70;;;6.40;99.90;;;;;;5203494;28;20434;-50
2023/12/12 02:15:09;;;;;;;6.47;5.37;;;6.40;99.90;;;;;;5205342;28;20497;-49
2023/12/12 02:17:40;;;;;;;5.53;5.00;;;6.40;99.90;;;;;;5207262;28;20811;-49
2023/12/12 02:20:18;;;;;;;11.33;4.97;;;6.40;99.90;;;;;;5206168;28;20434;-50
2023/12/12 02:22:49;;;;;;;4.57;4.10;;;6.30;99.90;;;;;;5205745;28;20435;-51
2023/12/12 02:25:20;;;;;;;6.27;5.23;;;6.30;99.90;;;;;;5208970;28;20450;-52
2023/12/12 02:27:52;;;;;;;12.13;7.63;;;6.30;99.90;;;;;;5206696;28;20175;-50
2023/12/12 02:30:23;;;;;;;5.50;5.07;;;6.30;99.90;;;;;;5206557;28;20430;-51
2023/12/12 02:32:54;;;;;;;5.20;4.70;;;6.30;99.90;;;;;;5222368;28;20500;-51
2023/12/12 02:35:25;;;;;;;17.10;8.23;;;6.30;99.90;;;;;;5188581;28;20509;-51
2023/12/12 02:37:55;;;;;;;4.03;3.73;;;6.30;99.90;;;;;;5203206;28;20184;-50
2023/12/12 02:40:26;;;;;;;10.33;5.37;;;6.30;99.90;;;;;;5201743;28;20578;-49
2023/12/12 02:42:57;;;;;;;6.73;5.13;;;6.30;99.90;;;;;;5202189;28;20207;-52
2023/12/12 02:45:28;;;;;;;5.50;4.87;;;6.30;99.90;;;;;;5202882;28;20562;-51
2023/12/12 02:48:01;;;;;;;7.03;3.50;;;6.30;99.90;;;;;;5200572;28;20452;-50
2023/12/12 02:50:32;;;;;;;4.90;4.47;;;6.30;99.90;;;;;;5205162;28;20239;-51
2023/12/12 02:53:06;;;;;;;4.13;3.83;;;6.30;99.90;;;;;;5209335;28;20536;-49
2023/12/12 02:55:37;;;;;;;3.60;3.30;;;6.30;99.90;;;;;;5203602;28;20295;-49
2023/12/12 02:58:08;;;;;;;5.13;4.60;;;6.30;99.90;;;;;;5202822;28;21014;-50
2023/12/12 03:00:45;;;;;;;5.87;4.47;;;6.30;99.90;;;;;;5205148;28;20266;-50
2023/12/12 03:03:16;;;;;;;5.47;4.70;;;6.40;99.90;;;;;;5204935;28;20180;-51
2023/12/12 03:05:46;;;;;;;6.77;5.30;;;6.40;99.90;;;;;;5204943;28;20462;-49
2023/12/12 03:08:17;;;;;;;4.90;4.50;;;6.40;99.90;;;;;;5203452;28;20234;-49
2023/12/12 03:10:51;;;;;;;10.10;5.03;;;6.40;99.90;;;;;;5202308;28;20187;-50
2023/12/12 03:13:22;;;;;;;6.50;5.80;;;6.40;99.90;;;;;;5218077;28;20591;-51
2023/12/12 03:15:53;;;;;;;16.53;8.40;;;6.40;99.90;;;;;;5202219;28;20472;-51
2023/12/12 03:18:24;;;;;;;7.87;6.00;;;6.40;99.90;;;;;;5203467;28;20188;-49
2023/12/12 03:20:54;;;;;;;9.30;6.60;;;6.40;99.90;;;;;;5192077;28;20644;-50
2023/12/12 03:23:25;;;;;;;8.40;6.50;;;6.40;99.90;;;;;;5209113;28;20175;-50
2023/12/12 03:25:57;;;;;;;10.40;8.20;;;6.40;99.90;;;;;;5210323;28;20215;-50
2023/12/12 03:28:28;;;;;;;7.97;6.87;;;6.40;99.90;;;;;;5204538;28;20176;-51
2023/12/12 03:30:59;;;;;;;8.53;7.50;;;6.40;99.90;;;;;;5194022;28;20429;-51
2023/12/12 03:33:30;;;;;;;11.30;7.47;;;6.40;99.90;;;;;;5206496;28;20231;-50
2023/12/12 03:36:05;;;;;;;14.03;8.40;;;6.40;99.90;;;;;;5208117;28;20207;-51
2023/12/12 03:38:36;;;;;;;12.43;8.73;;;6.40;99.90;;;;;;5206179;28;20181;-49
2023/12/12 03:41:07;;;;;;;11.47;7.87;;;6.40;99.90;;;;;;5204403;28;20799;-50
2023/12/12 03:43:38;;;;;;;13.00;8.50;;;6.40;99.90;;;;;;5205577;28;20188;-50
2023/12/12 03:46:12;;;;;;;8.00;7.00;;;6.40;99.90;;;;;;5206773;28;20468;-51
2023/12/12 03:48:43;;;;;;;15.57;9.10;;;6.50;99.90;;;;;;5206384;28;20179;-50
2023/12/12 03:51:15;;;;;;;12.07;9.10;;;6.50;99.90;;;;;;5195499;28;20477;-51
2023/12/12 03:53:45;;;;;;;12.33;9.27;;;6.50;99.90;;;;;;5206660;28;20183;-51
2023/12/12 03:56:16;;;;;;;16.30;9.10;;;6.50;99.90;;;;;;5201512;28;20488;-51
2023/12/12 03:58:47;;;;;;;15.80;10.60;;;6.50;99.90;;;;;;5204462;28;20188;-51
2023/12/12 04:01:19;;;;;;;15.67;9.57;;;6.50;99.90;;;;;;5207796;28;20434;-51
2023/12/12 04:03:50;;;;;;;10.37;8.30;;;6.60;99.90;;;;;;5204769;28;20445;-51
2023/12/12 04:06:22;;;;;;;15.20;9.93;;;6.50;99.90;;;;;;5206052;28;20819;-50
2023/12/12 04:08:53;;;;;;;13.03;10.10;;;6.60;99.90;;;;;;5190473;28;20184;-50
2023/12/12 04:11:27;;;;;;;14.10;10.03;;;6.50;99.90;;;;;;5206352;28;20568;-51
2023/12/12 04:13:59;;;;;;;14.10;9.67;;;6.50;99.90;;;;;;5202417;28;20462;-51
2023/12/12 04:16:30;;;;;;;20.93;10.77;;;6.60;99.90;;;;;;5200740;28;20465;-50
2023/12/12 04:19:01;;;;;;;12.33;9.20;;;6.50;99.90;;;;;;5196098;28;20432;-51
2023/12/12 04:21:32;;;;;;;14.77;9.77;;;6.50;99.90;;;;;;5203980;28;20427;-50
2023/12/12 04:24:03;;;;;;;14.23;10.40;;;6.50;99.90;;;;;;5204373;28;20800;-50
2023/12/12 04:26:34;;;;;;;11.00;8.87;;;6.60;99.90;;;;;;5215435;28;20450;-51
2023/12/12 04:29:05;;;;;;;16.47;10.50;;;6.50;99.90;;;;;;5206087;28;20435;-51
2023/12/12 04:31:36;;;;;;;14.53;8.90;;;6.50;99.90;;;;;;5207700;28;20465;-51
2023/12/12 04:34:07;;;;;;;19.47;10.00;;;6.50;99.90;;;;;;5208155;28;20176;-51
2023/12/12 04:36:38;;;;;;;15.70;9.33;;;6.50;99.90;;;;;;5201849;28;20663;-53
2023/12/12 04:39:16;;;;;;;16.50;10.73;;;6.50;99.90;;;;;;5207232;28;20773;-51
2023/12/12 04:41:47;;;;;;;10.40;8.33;;;6.50;99.90;;;;;;5205437;28;20225;-51
2023/12/12 04:44:18;;;;;;;12.43;8.20;;;6.60;99.90;;;;;;5207995;28;20430;-51
2023/12/12 04:46:49;;;;;;;10.77;7.90;;;6.60;99.90;;;;;;5207732;28;20195;-50
2023/12/12 04:49:20;;;;;;;10.70;8.60;;;6.60;99.90;;;;;;5204397;28;20434;-52
2023/12/12 04:51:51;;;;;;;11.47;8.87;;;6.60;99.90;;;;;;5207267;28;20942;-50
2023/12/12 04:54:22;;;;;;;8.10;7.00;;;6.60;99.90;;;;;;5208926;28;20516;-51
2023/12/12 04:56:53;;;;;;;11.30;8.30;;;6.50;99.90;;;;;;5203340;28;20206;-52
2023/12/12 04:59:24;;;;;;;10.20;7.97;;;6.50;99.90;;;;;;5208597;28;20458;-52
2023/12/12 05:02:00;;;;;;;7.43;6.67;;;6.50;99.90;;;;;;5209346;28;20446;-52
2023/12/12 05:04:31;;;;;;;10.47;8.67;;;6.50;99.90;;;;;;5207866;28;20179;-50
2023/12/12 05:07:02;;;;;;;11.30;8.20;;;6.50;99.90;;;;;;5202011;28;20516;-52
2023/12/12 05:09:33;;;;;;;10.57;7.60;;;6.50;99.90;;;;;;5202983;28;20861;-51
2023/12/12 05:12:05;;;;;;;9.80;6.73;;;6.60;99.90;;;;;;5206958;28;20457;-50
2023/12/12 05:14:36;;;;;;;4.50;3.90;;;6.50;99.90;;;;;;5194601;28;20576;-50
2023/12/12 05:17:07;;;;;;;7.93;4.97;;;6.60;99.90;;;;;;5186319;28;20933;-53
2023/12/12 05:19:40;;;;;;;7.97;4.60;;;6.60;99.90;;;;;;5186992;28;20859;-54
2023/12/12 05:22:11;;;;;;;5.40;4.90;;;6.70;99.90;;;;;;5193650;28;20454;-51
2023/12/12 05:24:42;;;;;;;4.50;4.13;;;6.60;99.90;;;;;;5202051;28;20441;-50
2023/12/12 05:27:13;;;;;;;5.27;4.87;;;6.60;99.90;;;;;;5196131;28;20463;-52
2023/12/12 05:29:44;;;;;;;6.97;4.67;;;6.60;99.90;;;;;;5177491;28;20210;-52
2023/12/12 05:32:15;;;;;;;9.10;5.17;;;6.50;99.90;;;;;;5206700;28;20282;-51
2023/12/12 05:34:46;;;;;;;5.47;4.80;;;6.50;99.90;;;;;;5198062;28;20207;-53
2023/12/12 05:37:17;;;;;;;7.33;5.70;;;6.50;99.90;;;;;;5203423;28;20458;-52
2023/12/12 05:39:48;;;;;;;10.73;6.77;;;6.60;99.90;;;;;;5199430;28;20175;-51
2023/12/12 05:42:19;;;;;;;8.87;5.30;;;6.50;99.90;;;;;;5202833;28;20187;-51
2023/12/12 05:44:50;;;;;;;5.40;5.00;;;6.50;99.90;;;;;;5200294;28;20466;-50
2023/12/12 05:47:23;;;;;;;9.70;6.57;;;6.50;99.90;;;;;;5196060;28;20438;-50
2023/12/12 05:49:54;;;;;;;8.33;6.20;;;6.50;99.90;;;;;;5204842;28;20218;-51
2023/12/12 05:52:25;;;;;;;9.60;7.70;;;6.50;99.90;;;;;;5201458;28;20434;-50
2023/12/12 05:54:56;;;;;;;15.00;7.33;;;6.60;99.90;;;;;;5210112;28;20520;-52
2023/12/12 05:57:27;;;;;;;25.77;10.10;;;6.60;99.90;;;;;;5203166;28;20423;-52
2023/12/12 05:59:58;;;;;;;8.00;6.70;;;6.50;99.90;;;;;;5201834;28;20795;-52
2023/12/12 06:02:29;;;;;;;5.30;4.90;;;6.50;99.90;;;;;;5202626;28;20211;-51
2023/12/12 06:05:00;;;;;;;5.73;5.20;;;6.50;99.90;;;;;;5204104;28;20990;-52
2023/12/12 06:07:31;;;;;;;4.93;4.43;;;6.50;99.90;;;;;;5202788;28;20192;-51
2023/12/12 06:10:04;;;;;;;10.73;5.73;;;6.50;99.90;;;;;;5205530;28;20187;-50
2023/12/12 06:12:38;;;;;;;5.40;4.60;;;6.50;99.90;;;;;;5200577;28;20908;-51
2023/12/12 06:15:09;;;;;;;14.53;5.93;;;6.50;99.90;;;;;;5199830;28;20508;-52
2023/12/12 06:17:40;;;;;;;10.20;5.73;;;6.50;99.90;;;;;;5202092;28;20439;-51
2023/12/12 06:20:11;;;;;;;5.80;5.30;;;6.50;99.90;;;;;;5201905;28;20438;-52
2023/12/12 06:22:42;;;;;;;5.87;5.40;;;6.40;99.90;;;;;;5201231;28;20427;-51
2023/12/12 06:25:13;;;;;;;9.60;6.70;;;6.40;99.90;;;;;;5201116;28;20474;-51
2023/12/12 06:27:44;;;;;;;8.90;7.07;;;6.40;99.90;;;;;;5198444;28;20184;-51
2023/12/12 06:30:14;;;;;;;11.80;8.43;;;6.40;99.90;;;;;;5202508;28;20193;-51
2023/12/12 06:32:45;;;;;;;9.00;7.70;;;6.50;99.90;;;;;;5204075;28;20195;-51
2023/12/12 06:35:16;;;;;;;10.43;6.73;;;6.50;99.90;;;;;;5200206;28;20226;-50
2023/12/12 06:37:55;;;;;;;10.60;7.97;;;6.50;99.90;;;;;;5197075;28;20426;-50
2023/12/12 06:40:30;;;;;;;7.63;6.20;;;6.50;99.90;;;;;;5197381;28;20191;-50
2023/12/12 06:43:01;;;;;;;12.30;6.90;;;6.50;99.90;;;;;;5193957;28;20545;-51
2023/12/12 06:45:31;;;;;;;13.47;6.60;;;6.50;99.90;;;;;;5200630;28;21006;-51
2023/12/12 06:48:02;;;;;;;9.27;6.90;;;6.50;99.90;;;;;;5204366;28;20215;-51
2023/12/12 06:50:33;;;;;;;11.10;7.13;;;6.40;99.90;;;;;;5199084;28;20252;-51
2023/12/12 06:53:04;;;;;;;9.70;7.10;;;6.40;99.90;;;;;;5199501;28;20501;-51
2023/12/12 06:55:37;;;;;;;9.83;6.33;;;6.40;99.90;;;;;;5196109;28;20223;-52
2023/12/12 06:58:08;;;;;;;20.20;7.70;;;6.40;99.90;;;;;;5198648;28;20522;-51
2023/12/12 07:00:42;;;;;;;15.80;7.80;;;6.40;99.90;;;;;;5194659;28;20565;-51
2023/12/12 07:03:13;;;;;;;9.63;6.90;;;6.40;99.90;;;;;;5190825;28;20239;-51
2023/12/12 07:05:44;;;;;;;10.93;7.37;;;6.40;99.90;;;;;;5210925;28;20890;-51
2023/12/12 07:08:15;;;;;;;15.03;6.47;;;6.40;99.90;;;;;;5204827;28;20206;-50
2023/12/12 07:10:46;;;;;;;11.77;6.37;;;6.30;99.90;;;;;;5196645;28;20518;-53
2023/12/12 07:13:17;;;;;;;11.80;7.40;;;6.30;99.90;;;;;;5182355;28;20500;-51
2023/12/12 07:15:48;;;;;;;20.10;9.23;;;6.40;99.90;;;;;;5201413;28;20993;-50
2023/12/12 07:18:19;;;;;;;13.50;8.03;;;6.30;99.90;;;;;;5202494;28;20211;-50
2023/12/12 07:20:50;;;;;;;17.53;8.00;;;6.30;99.90;;;;;;5204253;28;20187;-51
2023/12/12 07:23:21;;;;;;;14.83;8.80;;;6.40;99.90;;;;;;5201917;28;20423;-51
2023/12/12 07:25:52;;;;;;;12.03;8.33;;;6.30;99.90;;;;;;5200555;28;20207;-51
2023/12/12 07:28:23;;;;;;;10.03;7.97;;;6.30;99.90;;;;;;5193685;28;20774;-51
2023/12/12 07:30:54;;;;;;;25.93;12.47;;;6.30;99.90;;;;;;5204178;28;20207;-51
2023/12/12 07:33:25;;;;;;;19.13;10.30;;;6.30;99.90;;;;;;5206581;28;20451;-51
2023/12/12 07:35:55;;;;;;;14.10;11.20;;;6.30;99.90;;;;;;5205459;28;20216;-50
2023/12/12 07:38:26;;;;;;;14.40;9.10;;;6.30;99.90;;;;;;5185221;28;20176;-52
2023/12/12 07:40:59;;;;;;;21.40;11.80;;;6.40;99.90;;;;;;5200383;28;20195;-52
2023/12/12 07:43:30;;;;;;;11.33;9.27;;;6.40;99.90;;;;;;5199116;28;20443;-51
2023/12/12 07:46:01;;;;;;;14.30;10.47;;;6.40;99.90;;;;;;5199393;28;21004;-51
2023/12/12 07:48:31;;;;;;;14.60;8.57;;;6.40;99.90;;;;;;5201332;28;20442;-51
2023/12/12 07:51:02;;;;;;;18.57;10.77;;;6.40;99.90;;;;;;5200129;28;20258;-51
2023/12/12 07:53:33;;;;;;;12.10;8.90;;;6.50;99.90;;;;;;5201906;28;20192;-51
2023/12/12 07:56:05;;;;;;;12.17;9.60;;;6.50;99.90;;;;;;5202630;28;20865;-51
2023/12/12 07:58:36;;;;;;;10.70;8.43;;;6.50;99.90;;;;;;5201191;28;20187;-50
2023/12/12 08:01:07;;;;;;;12.70;9.10;;;6.50;99.90;;;;;;5200690;28;20438;-51
2023/12/12 08:03:38;;;;;;;21.27;11.30;;;6.50;99.90;;;;;;5201715;28;20604;-50
2023/12/12 08:06:10;;;;;;;23.77;12.30;;;6.50;99.90;;;;;;5200673;28;20208;-51
2023/12/12 08:08:41;;;;;;;14.13;10.70;;;6.50;99.90;;;;;;5199771;28;20446;-51
2023/12/12 08:11:13;;;;;;;13.37;7.90;;;6.50;99.90;;;;;;5203259;28;20426;-51
2023/12/12 08:13:44;;;;;;;15.73;10.00;;;6.50;99.90;;;;;;5201393;28;20226;-52
2023/12/12 08:16:15;;;;;;;17.03;9.33;;;6.50;99.90;;;;;;5202293;28;21046;-52
2023/12/12 08:18:45;;;;;;;17.70;10.73;;;6.60;99.90;;;;;;5200851;28;20199;-50
2023/12/12 08:21:17;;;;;;;15.50;10.83;;;6.60;99.90;;;;;;5198769;28;20469;-51
2023/12/12 08:23:48;;;;;;;21.33;10.93;;;6.60;99.90;;;;;;5202181;28;20204;-50
2023/12/12 08:26:19;;;;;;;15.53;9.20;;;6.60;99.90;;;;;;5202181;28;20784;-52
2023/12/12 08:28:52;;;;;;;16.10;9.87;;;6.60;99.90;;;;;;5198607;28;20840;-50
2023/12/12 08:31:23;;;;;;;18.40;10.70;;;6.60;99.90;;;;;;5196783;28;20188;-50
2023/12/12 08:33:54;;;;;;;21.87;11.00;;;6.60;99.90;;;;;;5198278;28;20507;-50
2023/12/12 08:36:25;;;;;;;15.33;11.60;;;6.60;99.90;;;;;;5196792;28;20836;-50
2023/12/12 08:38:58;;;;;;;16.47;11.03;;;6.50;99.90;;;;;;5195984;28;20270;-52
2023/12/12 08:41:30;;;;;;;32.60;14.03;;;6.50;99.90;;;;;;5198597;28;20415;-51
2023/12/12 08:44:01;;;;;;;20.80;10.50;;;6.50;99.90;;;;;;5199206;28;20434;-50
2023/12/12 08:46:32;;;;;;;20.90;11.40;;;6.50;99.90;;;;;;5197981;28;20450;-51
2023/12/12 08:49:03;;;;;;;16.80;11.57;;;6.60;99.90;;;;;;5192077;28;20184;-50
2023/12/12 08:51:34;;;;;;;20.80;10.63;;;6.60;99.90;;;;;;5201266;28;20644;-51
2023/12/12 08:54:05;;;;;;;14.73;10.33;;;6.50;99.90;;;;;;5199807;28;20458;-50
2023/12/12 08:56:38;;;;;;;23.10;12.23;;;6.60;99.90;;;;;;5198447;28;20479;-52
2023/12/12 08:59:11;;;;;;;38.77;11.00;;;6.60;99.90;;;;;;5199209;28;20439;-51
2023/12/12 09:01:46;;;;;;;17.83;9.60;;;6.60;99.90;;;;;;5201017;28;20443;-51
2023/12/12 09:04:21;;;;;;;13.60;8.87;;;6.50;99.90;;;;;;5199697;28;20434;-50
2023/12/12 09:06:52;;;;;;;8.83;7.23;;;6.50;99.90;;;;;;5200814;28;20469;-51
2023/12/12 09:09:23;;;;;;;11.07;7.93;;;6.50;99.90;;;;;;5201837;28;20457;-50
2023/12/12 09:11:54;;;;;;;12.20;8.13;;;6.50;99.90;;;;;;5198856;28;20191;-50
2023/12/12 09:14:28;;;;;;;16.63;7.70;;;6.50;99.90;;;;;;5201235;28;20454;-51
2023/12/12 09:16:58;;;;;;;16.60;9.00;;;6.50;99.90;;;;;;5201123;28;20458;-51
2023/12/12 09:19:29;;;;;;;12.13;7.00;;;6.50;99.90;;;;;;5200644;28;20550;-52
2023/12/12 09:22:00;;;;;;;6.43;5.83;;;6.50;99.90;;;;;;5200371;28;20253;-52
2023/12/12 09:24:33;;;;;;;15.73;7.70;;;6.40;99.90;;;;;;5201137;28;20192;-53
2023/12/12 09:27:04;;;;;;;19.03;9.10;;;6.50;99.90;;;;;;5200137;28;20211;-52
2023/12/12 09:29:35;;;;;;;21.17;7.67;;;6.50;99.90;;;;;;5198170;28;20808;-51
2023/12/12 09:32:06;;;;;;;10.23;6.37;;;6.60;99.90;;;;;;5201659;28;20215;-51
2023/12/12 09:34:38;;;;;;;13.83;7.00;;;6.60;99.90;;;;;;5202043;28;20211;-51
2023/12/12 09:37:08;;;;;;;25.13;7.40;;;6.70;99.90;;;;;;5200796;28;21021;-51
2023/12/12 09:39:40;;;;;;;13.50;7.50;;;6.70;99.90;;;;;;5200080;28;20443;-50
2023/12/12 09:42:15;;;;;;;16.20;7.43;;;6.70;99.90;;;;;;5202443;28;20227;-50
2023/12/12 09:44:53;;;;;;;15.20;7.67;;;6.60;99.90;;;;;;5198649;28;20442;-53
2023/12/12 09:47:24;;;;;;;15.90;8.03;;;6.70;99.90;;;;;;5198032;28;20439;-49
2023/12/12 09:49:56;;;;;;;24.07;7.37;;;6.70;99.90;;;;;;5199245;28;20438;-50
2023/12/12 09:52:36;;;;;;;19.40;7.47;;;6.70;99.90;;;;;;5281169;27;21098;-51
2023/12/12 09:55:08;;;;;;;13.07;6.73;;;6.70;99.90;;;;;;5281608;28;20441;-50
2023/12/12 09:57:39;;;;;;;10.53;7.03;;;6.70;99.90;;;;;;5302748;28;20490;-52
2023/12/12 10:00:10;;;;;;;16.70;7.90;;;6.60;99.90;;;;;;5284629;27;20442;-53
2023/12/12 10:02:41;;;;;;;22.13;9.07;;;6.60;99.90;;;;;;5285666;28;20190;-51
2023/12/12 10:05:13;;;;;;;16.30;7.17;;;6.70;99.90;;;;;;5306401;27;20493;-53
2023/12/12 10:07:47;;;;;;;13.70;6.97;;;6.60;99.90;;;;;;5284714;28;20525;-52
2023/12/12 10:10:18;;;;;;;16.87;9.37;;;6.70;99.90;;;;;;5288418;28;20521;-53
2023/12/12 10:12:49;;;;;;;23.10;6.90;;;6.70;99.90;;;;;;5304188;27;20438;-54
2023/12/12 10:15:22;;;;;;;16.30;8.77;;;6.70;99.90;;;;;;5302908;27;20487;-54
2023/12/12 10:18:00;;;;;;;18.80;8.30;;;6.70;99.90;;;;;;5287361;28;20521;-54
2023/12/12 10:20:31;;;;;;;26.57;12.83;;;6.70;99.90;;;;;;5283368;28;20425;-52
2023/12/12 10:23:04;;;;;;;29.53;7.77;;;6.70;99.90;;;;;;5284722;28;20449;-52
2023/12/12 10:25:35;;;;;;;16.40;6.70;;;6.70;99.90;;;;;;5282446;28;20465;-53
2023/12/12 10:28:06;;;;;;;15.90;6.67;;;6.70;99.90;;;;;;5302769;27;20497;-53
2023/12/12 10:30:37;;;;;;;15.20;8.07;;;6.70;99.90;;;;;;5289422;27;20861;-52
2023/12/12 10:33:14;;;;;;;12.07;7.10;;;6.70;99.90;;;;;;5298620;27;20200;-52
2023/12/12 10:35:45;;;;;;;18.60;6.97;;;6.70;99.90;;;;;;5287293;27;20257;-53
2023/12/12 10:38:23;;;;;;;17.13;8.00;;;6.70;99.90;;;;;;5304143;27;20507;-53
2023/12/12 10:40:53;;;;;;;20.97;10.63;;;6.70;99.90;;;;;;5285633;28;20448;-52
2023/12/12 10:43:24;;;;;;;14.33;6.83;;;6.80;99.90;;;;;;5287760;28;20433;-53
2023/12/12 10:45:56;;;;;;;8.40;6.70;;;6.80;99.90;;;;;;5303577;28;20196;-52
2023/12/12 10:48:28;;;;;;;10.57;5.80;;;6.80;99.90;;;;;;5300734;27;20480;-54
2023/12/12 10:51:01;;;;;;;7.33;6.03;;;6.90;99.90;;;;;;5282811;28;20790;-53
2023/12/12 10:53:33;;;;;;;6.77;6.10;;;6.90;99.90;;;;;;5281845;28;20786;-52
2023/12/12 10:56:06;;;;;;;6.90;5.70;;;6.90;99.90;;;;;;5282061;28;20442;-55
2023/12/12 10:58:39;;;;;;;6.87;4.50;;;7.00;99.90;;;;;;5266485;28;20487;-52
2023/12/12 11:01:13;;;;;;;6.93;6.23;;;7.00;99.90;;;;;;5277721;28;20438;-54
2023/12/12 11:03:45;;;;;;;7.07;5.50;;;7.10;99.90;;;;;;5269736;28;20441;-54
2023/12/12 11:06:20;;;;;;;6.10;5.40;;;7.10;99.90;;;;;;5269909;28;21938;-53
2023/12/12 11:08:52;;;;;;;8.67;6.33;;;7.10;99.90;;;;;;5290151;28;20441;-53
2023/12/12 11:11:24;;;;;;;8.50;5.23;;;7.10;99.90;;;;;;5267683;28;20463;-53
2023/12/12 11:13:56;;;;;;;10.77;7.00;;;7.10;99.90;;;;;;5270893;28;20432;-53
2023/12/12 11:16:28;;;;;;;9.30;7.00;;;7.00;99.90;;;;;;5272266;28;20462;-53
2023/12/12 11:19:01;;;;;;;13.27;8.43;;;6.90;99.90;;;;;;5285036;27;20438;-52
2023/12/12 11:21:51;;;;;;;10.10;7.80;;;6.90;99.90;;;;;;5266318;28;20490;-51
2023/12/12 11:25:11;;;;;;;13.17;8.70;;;7.00;99.90;;;;;;5288303;28;20800;-52
2023/12/12 11:27:46;;;;;;;14.20;7.97;;;6.90;99.90;;;;;;5256103;28;20454;-52
2023/12/12 11:30:19;;;;;;;15.13;6.90;;;7.00;99.90;;;;;;5266621;28;20445;-53
2023/12/12 11:32:55;;;;;;;12.20;6.80;;;7.00;99.90;;;;;;5270335;27;20429;-53
2023/12/12 11:35:29;;;;;;;12.20;6.10;;;7.10;99.90;;;;;;5286080;28;20741;-52
2023/12/12 11:38:07;;;;;;;7.23;6.63;;;7.10;99.90;;;;;;5269250;28;20439;-52
2023/12/12 11:40:38;;;;;;;8.43;6.57;;;7.10;99.90;;;;;;5283642;28;20477;-53
2023/12/12 11:43:24;;;;;;;12.70;6.60;;;7.20;99.90;;;;;;5283966;28;20463;-52
2023/12/12 11:45:56;;;;;;;9.70;7.10;;;7.30;99.90;;;;;;5268719;28;20204;-51
2023/12/12 11:48:27;;;;;;;9.77;6.20;;;7.40;99.90;;;;;;5265563;28;24171;-51
2023/12/12 11:50:58;;;;;;;16.00;6.17;;;7.40;99.90;;;;;;5259074;28;20459;-52
2023/12/12 11:53:39;;;;;;;10.43;6.20;;;7.50;99.90;;;;;;5272847;28;20431;-52
2023/12/12 11:56:10;;;;;;;9.17;6.03;;;7.60;99.90;;;;;;5276107;28;20242;-51
2023/12/12 11:58:41;;;;;;;11.07;6.63;;;7.70;99.90;;;;;;5255433;28;20443;-52
2023/12/12 12:01:21;;;;;;;10.50;6.33;;;7.60;99.90;;;;;;5256158;28;20599;-52
2023/12/12 12:03:53;;;;;;;6.17;5.57;;;7.60;99.90;;;;;;5273490;28;20592;-52
2023/12/12 12:06:24;;;;;;;14.00;8.00;;;7.70;99.90;;;;;;5264077;28;20458;-53
2023/12/12 12:08:54;;;;;;;10.60;7.27;;;7.70;99.90;;;;;;5280999;28;20472;-53
2023/12/12 12:11:36;;;;;;;17.10;6.80;;;7.80;99.90;;;;;;5267889;28;20454;-53
2023/12/12 12:14:20;;;;;;;11.50;5.33;;;7.80;99.90;;;;;;5283184;28;20707;-53
2023/12/12 12:16:58;;;;;;;9.10;5.87;;;7.80;99.90;;;;;;5269359;28;20980;-53
2023/12/12 12:19:33;;;;;;;11.77;6.80;;;7.90;99.90;;;;;;5267657;28;20529;-52
2023/12/12 12:22:05;;;;;;;10.03;5.80;;;7.90;99.90;;;;;;5297913;27;20446;-52
2023/12/12 12:24:46;;;;;;;6.67;5.47;;;7.90;99.90;;;;;;5267480;28;20802;-51
2023/12/12 12:27:17;;;;;;;5.07;4.23;;;7.90;99.90;;;;;;5252439;28;20537;-51
2023/12/12 12:29:59;;;;;;;8.63;6.30;;;7.90;99.90;;;;;;5268637;28;20514;-52
2023/12/12 12:32:30;;;;;;;9.90;5.20;;;8.10;99.90;;;;;;5267492;28;20686;-52
2023/12/12 12:35:11;;;;;;;5.73;4.83;;;8.30;99.90;;;;;;5287414;28;20445;-53
2023/12/12 12:37:41;;;;;;;11.67;5.17;;;8.60;99.90;;;;;;5268893;28;20279;-52
2023/12/12 12:40:39;;;;;;;9.27;3.53;;;8.70;99.90;;;;;;5269213;28;20584;-52
2023/12/12 12:43:17;;;;;;;4.47;4.07;;;8.70;99.90;;;;;;5271910;28;20188;-53
2023/12/12 12:45:49;;;;;;;7.30;4.80;;;8.60;99.90;;;;;;5268465;28;20808;-51
2023/12/12 12:48:25;;;;;;;10.80;5.33;;;8.60;99.90;;;;;;5284816;28;20875;-51
2023/12/12 12:50:55;;;;;;;11.70;5.43;;;8.50;99.90;;;;;;5285193;28;20832;-51
2023/12/12 12:53:26;;;;;;;4.83;4.07;;;8.40;99.90;;;;;;5269917;28;20434;-52
2023/12/12 12:55:59;;;;;;;7.13;4.70;;;8.30;99.90;;;;;;5283095;28;20224;-53
2023/12/12 12:58:29;;;;;;;7.10;4.17;;;8.30;99.90;;;;;;5284377;28;20681;-53
2023/12/12 13:01:00;;;;;;;6.17;4.50;;;8.30;99.90;;;;;;5283200;28;20438;-52
2023/12/12 13:03:31;;;;;;;5.67;4.90;;;8.30;99.90;;;;;;5253283;28;20226;-52
2023/12/12 13:06:02;;;;;;;5.07;3.53;;;8.20;99.90;;;;;;5268521;28;20687;-52
2023/12/12 13:08:33;;;;;;;3.70;3.40;;;8.00;99.90;;;;;;5270713;28;20189;-51
2023/12/12 13:11:04;;;;;;;8.70;4.80;;;7.90;99.90;;;;;;5269464;28;20822;-51
2023/12/12 13:13:37;;;;;;;5.43;4.90;;;7.80;99.90;;;;;;5268115;28;20599;-53
2023/12/12 13:16:08;;;;;;;6.67;4.90;;;7.70;99.90;;;;;;5282448;28;20213;-53